Time;durP1;ratioP1;P1;durP2;ratioP2;P2;SDS_P1;SDS_P2;PMS_P1;PMS_P2;Temp;Humidity;BMP_temperature;BMP_pressure;BME280_temperature;BME280_humidity;BME280_pressure;Samples;Min_cycle;Max_cycle;Signal;HPM_P1;HPM_P2
2023/01/02 00:01:13;;;;;;;25.48;16.23;;;;;;;10.31;67.81;100752.08;2137796;83;33844;-61
2023/01/02 00:04:16;;;;;;;30.95;19.98;;;;;;;10.29;67.83;100749.48;2147849;82;30308;-62
2023/01/02 00:07:18;;;;;;;27.65;16.70;;;;;;;10.27;67.75;100747.78;2141440;82;27699;-61
2023/01/02 00:10:20;;;;;;;27.73;16.37;;;;;;;10.25;67.77;100745.66;2126860;82;29836;-61
2023/01/02 00:13:22;;;;;;;30.35;19.35;;;;;;;10.21;67.84;100747.56;2126616;83;32191;-60
2023/01/02 00:16:24;;;;;;;26.45;14.05;;;;;;;10.18;67.88;100749.91;2126639;82;33710;-60
2023/01/02 00:19:27;;;;;;;21.20;12.40;;;;;;;10.17;67.85;100751.33;2126717;83;29867;-61
2023/01/02 00:22:29;;;;;;;19.07;12.70;;;;;;;10.15;67.88;100750.03;2126453;82;27721;-61
2023/01/02 00:25:33;;;;;;;23.05;13.22;;;;;;;10.13;67.94;100752.38;2126345;83;30014;-61
2023/01/02 00:28:36;;;;;;;23.30;12.30;;;;;;;10.09;67.93;100749.41;2098859;83;29804;-61
2023/01/02 00:31:38;;;;;;;24.12;12.63;;;;;;;10.07;67.95;100758.86;2126339;82;34156;-61
2023/01/02 00:34:40;;;;;;;19.57;12.53;;;;;;;10.06;68.09;100758.45;2139545;83;29398;-61
2023/01/02 00:37:42;;;;;;;17.70;10.95;;;;;;;10.06;68.13;100752.20;2138530;83;27597;-61
2023/01/02 00:40:44;;;;;;;17.00;11.63;;;;;;;10.05;68.19;100744.66;2152161;81;28691;-62
2023/01/02 00:43:46;;;;;;;24.47;10.32;;;;;;;10.05;68.25;100740.64;2173914;81;31141;-62
2023/01/02 00:46:48;;;;;;;15.05;9.83;;;;;;;10.07;68.25;100741.91;2174001;81;34188;-61
2023/01/02 00:49:50;;;;;;;15.28;9.33;;;;;;;10.09;68.30;100741.38;2174380;81;29443;-62
2023/01/02 00:52:52;;;;;;;15.98;9.93;;;;;;;10.09;68.26;100725.32;2174438;81;27601;-61
2023/01/02 00:55:54;;;;;;;32.08;18.35;;;;;;;10.10;68.33;100726.58;2174020;81;30008;-61
2023/01/02 00:58:56;;;;;;;87.12;62.13;;;;;;;10.07;68.29;100722.72;2174401;81;31053;-61
2023/01/02 01:01:58;;;;;;;34.00;23.95;;;;;;;10.07;68.36;100722.72;2180882;81;32989;-61
2023/01/02 01:05:00;;;;;;;19.50;12.70;;;;;;;10.07;68.32;100723.17;2180944;81;29892;-61
2023/01/02 01:08:02;;;;;;;17.05;10.58;;;;;;;10.07;68.35;100721.83;2181050;81;27751;-61
2023/01/02 01:11:08;;;;;;;16.45;9.80;;;;;;;10.08;68.41;100720.90;2181251;81;29678;-61
2023/01/02 01:14:10;;;;;;;17.48;9.78;;;;;;;10.07;68.52;100724.06;2180272;81;31884;-62
2023/01/02 01:17:11;;;;;;;15.23;9.83;;;;;;;10.07;68.49;100717.37;2181185;81;33326;-61
2023/01/02 01:20:14;;;;;;;16.42;9.88;;;;;;;10.10;68.52;100724.39;2180874;81;29904;-60
2023/01/02 01:23:16;;;;;;;17.32;9.08;;;;;;;10.12;68.56;100725.20;2180923;81;27656;-60
2023/01/02 01:26:19;;;;;;;13.85;8.65;;;;;;;10.14;68.56;100718.84;2181154;81;29357;-60
2023/01/02 01:29:21;;;;;;;13.05;8.55;;;;;;;10.16;68.66;100712.95;2177813;81;31162;-60
2023/01/02 01:32:23;;;;;;;15.80;8.68;;;;;;;10.18;68.66;100719.13;2145733;83;33812;-60
2023/01/02 01:35:25;;;;;;;14.07;8.65;;;;;;;10.22;68.65;100710.97;2107678;84;30225;-61
2023/01/02 01:38:28;;;;;;;14.35;8.28;;;;;;;10.25;68.64;100707.69;2145809;83;27729;-60
2023/01/02 01:41:30;;;;;;;14.60;9.33;;;;;;;10.27;68.58;100708.50;2122657;83;29921;-60
2023/01/02 01:44:53;;;;;;;14.13;7.50;;;;;;;10.30;68.55;100696.78;2122863;83;32002;-60
2023/01/02 01:47:58;;;;;;;18.48;9.23;;;;;;;10.31;68.54;100695.39;2133002;83;33197;-60
2023/01/02 01:51:01;;;;;;;17.25;8.38;;;;;;;10.36;68.56;100693.85;2133081;83;29189;-61
2023/01/02 01:54:12;;;;;;;14.07;8.58;;;;;;;10.38;68.52;100689.75;2153199;82;27749;-60
2023/01/02 01:57:31;;;;;;;14.45;8.73;;;;;;;10.39;68.48;100686.17;2158483;82;28661;-60
2023/01/02 02:00:34;;;;;;;13.00;8.23;;;;;;;10.40;68.45;100679.89;2158249;82;31482;-60
2023/01/02 02:03:37;;;;;;;19.30;9.73;;;;;;;10.40;68.36;100682.56;2157773;82;33908;-59
2023/01/02 02:06:39;;;;;;;18.95;10.75;;;;;;;10.37;68.34;100678.19;2158130;82;29499;-59
2023/01/02 02:09:51;;;;;;;17.57;10.30;;;;;;;10.38;68.40;100677.28;2132818;82;27738;-59
2023/01/02 02:12:55;;;;;;;17.60;9.93;;;;;;;10.36;68.34;100672.88;2151186;82;29738;-60
2023/01/02 02:16:20;;;;;;;22.95;12.25;;;;;;;10.35;68.31;100672.02;2158606;82;31040;-60
2023/01/02 02:20:08;;;;;;;20.02;12.55;;;;;;;10.35;68.27;100674.70;2153794;82;32966;-60
2023/01/02 02:23:48;;;;;;;27.20;12.75;;;;;;;10.31;68.22;100672.62;2158357;82;29074;-60
2023/01/02 02:26:55;;;;;;;30.08;13.32;;;;;;;10.29;68.12;100663.79;2158111;82;27668;-61
2023/01/02 02:30:16;;;;;;;22.93;12.78;;;;;;;10.28;68.08;100666.52;2158230;82;29456;-60
2023/01/02 02:33:44;;;;;;;23.20;13.48;;;;;;;10.28;68.09;100673.20;2158456;82;31173;-61
2023/01/02 02:37:01;;;;;;;25.52;13.18;;;;;;;10.26;67.94;100677.78;2157117;82;32445;-61
2023/01/02 02:40:20;;;;;;;26.00;13.88;;;;;;;10.23;67.91;100679.25;2158260;82;29930;-61
2023/01/02 02:43:50;;;;;;;25.70;14.05;;;;;;;10.22;67.93;100669.47;2166497;82;27712;-60
2023/01/02 02:47:15;;;;;;;27.55;14.58;;;;;;;10.19;67.91;100675.80;2147513;82;29965;-60
2023/01/02 02:50:35;;;;;;;25.30;13.20;;;;;;;10.18;67.92;100670.94;2169005;82;33598;-62
2023/01/02 02:53:50;;;;;;;25.60;14.05;;;;;;;10.16;67.93;100666.11;2163572;82;32962;-58
2023/01/02 02:56:52;;;;;;;25.95;14.30;;;;;;;10.14;67.96;100659.94;2162392;82;29019;-62
2023/01/02 02:59:54;;;;;;;24.72;13.78;;;;;;;10.12;67.98;100656.45;2161696;82;27763;-60
2023/01/02 03:02:56;;;;;;;26.07;15.05;;;;;;;10.12;67.97;100654.26;2138681;82;29378;-61
2023/01/02 03:06:19;;;;;;;27.93;15.43;;;;;;;10.09;67.93;100650.37;2161854;82;32261;-61
2023/01/02 03:09:35;;;;;;;28.75;15.23;;;;;;;10.04;67.94;100637.19;2162157;82;33963;-60
2023/01/02 03:13:11;;;;;;;21.52;12.85;;;;;;;10.00;68.00;100638.23;2161869;82;29066;-61
2023/01/02 03:16:36;;;;;;;24.92;13.88;;;;;;;9.94;67.98;100636.69;2162062;82;27648;-59
2023/01/02 03:19:43;;;;;;;24.98;13.05;;;;;;;9.88;68.02;100633.81;2162127;82;29519;-60
2023/01/02 03:22:50;;;;;;;25.68;14.50;;;;;;;9.85;68.07;100640.63;2151887;82;31835;-60
2023/01/02 03:25:52;;;;;;;26.77;14.75;;;;;;;9.83;68.17;100642.48;2140326;83;32953;-61
2023/01/02 03:28:59;;;;;;;30.88;15.23;;;;;;;9.81;68.21;100636.32;2140636;83;29378;-61
2023/01/02 03:32:02;;;;;;;26.95;13.58;;;;;;;9.79;68.24;100650.23;2140470;83;27668;-61
2023/01/02 03:35:10;;;;;;;27.13;14.90;;;;;;;9.77;68.22;100640.05;2114560;83;29374;-61
2023/01/02 03:38:29;;;;;;;25.02;14.45;;;;;;;9.75;68.31;100628.56;2140047;83;32264;-60
2023/01/02 03:41:38;;;;;;;24.75;13.75;;;;;;;9.72;68.46;100628.20;2139495;83;33836;-60
2023/01/02 03:44:45;;;;;;;25.32;13.38;;;;;;;9.69;68.46;100619.44;2141798;83;29288;-60
2023/01/02 03:48:16;;;;;;;25.75;13.45;;;;;;;9.66;68.55;100617.77;2141938;83;28276;-61
2023/01/02 03:51:18;;;;;;;20.12;12.10;;;;;;;9.66;68.56;100618.22;2126467;83;28661;-61
2023/01/02 03:54:21;;;;;;;24.43;12.90;;;;;;;9.64;68.66;100610.27;2090789;85;31070;-61
2023/01/02 03:57:54;;;;;;;22.70;11.35;;;;;;;9.66;68.65;100616.89;2106790;84;33702;-60
2023/01/02 04:01:07;;;;;;;22.05;12.53;;;;;;;9.63;68.69;100610.31;2090382;85;30333;-60
2023/01/02 04:04:36;;;;;;;21.70;11.93;;;;;;;9.64;68.73;100609.39;2107011;84;27802;-60
2023/01/02 04:07:52;;;;;;;18.80;10.90;;;;;;;9.64;68.70;100609.39;2090385;85;30106;-61
2023/01/02 04:10:56;;;;;;;22.32;11.85;;;;;;;9.63;68.79;100614.33;2106548;84;31883;-61
2023/01/02 04:14:03;;;;;;;16.07;8.90;;;;;;;9.63;68.81;100606.30;2067244;85;37222;-61
2023/01/02 04:17:07;;;;;;;19.40;11.10;;;;;;;9.61;68.81;100601.48;2090414;85;29828;-61
2023/01/02 04:20:14;;;;;;;22.40;12.55;;;;;;;9.60;68.84;100598.43;2106892;84;27696;-61
2023/01/02 04:23:33;;;;;;;23.73;13.43;;;;;;;9.59;68.86;100604.23;2131339;83;28658;-62
2023/01/02 04:26:53;;;;;;;19.70;11.43;;;;;;;9.58;68.94;100598.47;2061655;86;31895;-62
2023/01/02 04:29:55;;;;;;;20.52;12.18;;;;;;;9.58;68.93;100589.11;2062026;84;32986;-63
2023/01/02 04:32:59;;;;;;;19.40;12.10;;;;;;;9.57;69.04;100587.38;2061817;86;29893;-61
2023/01/02 04:36:10;;;;;;;20.52;12.18;;;;;;;9.57;69.01;100587.38;2061845;86;27812;-60
2023/01/02 04:39:12;;;;;;;19.10;11.30;;;;;;;9.58;69.05;100583.77;2062183;86;29584;-60
2023/01/02 04:42:14;;;;;;;22.70;10.58;;;;;;;9.55;69.11;100576.75;2061854;86;32491;-60
2023/01/02 04:45:17;;;;;;;18.20;11.90;;;;;;;9.55;69.15;100579.87;2062381;86;34146;-60
2023/01/02 04:48:19;;;;;;;18.00;10.38;;;;;;;9.54;69.24;100573.67;2062381;86;28544;-60
2023/01/02 04:51:22;;;;;;;19.32;11.50;;;;;;;9.53;69.19;100572.37;2062149;86;28114;-60
2023/01/02 04:54:24;;;;;;;19.67;11.22;;;;;;;9.51;69.24;100575.13;2062074;86;29300;-60
2023/01/02 04:57:27;;;;;;;22.07;11.33;;;;;;;9.50;69.23;100574.72;2061687;86;32447;-60
2023/01/02 05:00:29;;;;;;;16.97;9.95;;;;;;;9.49;69.32;100570.30;2064163;86;32572;-60
2023/01/02 05:03:31;;;;;;;19.17;10.90;;;;;;;9.47;69.33;100574.84;2117286;82;29416;-60
2023/01/02 05:06:33;;;;;;;18.67;10.78;;;;;;;9.46;69.34;100579.78;2147778;82;28145;-60
2023/01/02 05:09:35;;;;;;;18.90;11.12;;;;;;;9.46;69.33;100574.91;2147710;82;29883;-60
2023/01/02 05:12:38;;;;;;;19.23;11.88;;;;;;;9.44;69.31;100581.64;2174893;81;32152;-60
2023/01/02 05:15:40;;;;;;;17.00;11.25;;;;;;;9.40;69.32;100582.23;2174961;81;33747;-60
2023/01/02 05:18:42;;;;;;;18.00;10.78;;;;;;;9.37;69.40;100586.37;2174525;81;30234;-60
2023/01/02 05:25:08;;;;;;;18.30;10.32;;;;;;;9.28;69.62;100582.25;2178280;81;29935;-60
2023/01/02 05:28:09;;;;;;;15.48;10.05;;;;;;;9.25;69.63;100574.39;2178536;81;31017;-60
2023/01/02 05:31:11;;;;;;;17.75;10.40;;;;;;;9.23;69.75;100566.89;2178523;81;33771;-59
2023/01/02 05:34:14;;;;;;;23.02;10.40;;;;;;;9.20;69.77;100558.98;2178273;81;30250;-59
2023/01/02 05:37:16;;;;;;;18.30;10.95;;;;;;;9.18;69.90;100568.86;2178324;81;27728;-59
2023/01/02 05:40:18;;;;;;;19.70;10.03;;;;;;;9.17;69.93;100559.58;2178539;81;29864;-59
2023/01/02 05:43:20;;;;;;;20.72;10.00;;;;;;;9.16;70.00;100559.17;2168795;81;32202;-60
2023/01/02 05:46:23;;;;;;;14.85;9.00;;;;;;;9.14;70.03;100556.55;2157716;82;33051;-60
2023/01/02 05:49:25;;;;;;;17.62;9.58;;;;;;;9.12;70.01;100558.40;2158088;82;29078;-59
2023/01/02 05:52:28;;;;;;;15.23;9.25;;;;;;;9.08;70.02;100561.67;2140849;82;27652;-58
2023/01/02 05:55:29;;;;;;;17.05;10.85;;;;;;;9.04;69.96;100567.20;2126302;83;28634;-59
2023/01/02 05:58:34;;;;;;;15.68;9.75;;;;;;;8.96;69.93;100557.67;2138989;82;32227;-59
2023/01/02 06:01:36;;;;;;;18.00;9.80;;;;;;;8.90;69.90;100563.27;2142918;83;32983;-58
2023/01/02 06:04:37;;;;;;;19.02;9.55;;;;;;;8.84;69.98;100557.30;2143171;83;29431;-59
2023/01/02 06:07:39;;;;;;;18.02;10.38;;;;;;;8.77;70.16;100549.98;2139412;83;27690;-58
2023/01/02 06:10:48;;;;;;;23.02;11.60;;;;;;;8.69;70.49;100540.03;2126532;83;28735;-59
2023/01/02 06:13:51;;;;;;;19.48;11.05;;;;;;;8.64;70.67;100534.88;2126470;83;31892;-60
2023/01/02 06:16:53;;;;;;;17.92;10.28;;;;;;;8.60;70.83;100532.80;2139113;82;33825;-60
2023/01/02 06:19:55;;;;;;;15.35;10.55;;;;;;;8.56;70.97;100533.83;2139282;83;30349;-60
2023/01/02 06:22:56;;;;;;;20.27;10.90;;;;;;;8.56;71.14;100537.84;2139543;83;27695;-60
2023/01/02 06:26:05;;;;;;;18.85;11.65;;;;;;;8.57;71.32;100538.70;2139200;83;29923;-60
2023/01/02 06:29:07;;;;;;;18.05;11.12;;;;;;;8.57;71.23;100538.25;2139466;83;31182;-60
2023/01/02 06:32:09;;;;;;;17.30;9.65;;;;;;;8.58;71.37;100544.00;2139224;83;33417;-60
2023/01/02 06:35:11;;;;;;;19.73;9.60;;;;;;;8.58;71.34;100541.33;2119495;84;29094;-61
2023/01/02 06:38:13;;;;;;;16.02;10.08;;;;;;;8.59;71.45;100540.84;2119577;84;28193;-60
2023/01/02 06:41:16;;;;;;;14.10;9.35;;;;;;;8.58;71.73;100533.76;2139250;83;29083;-60
2023/01/02 06:44:18;;;;;;;14.18;8.95;;;;;;;8.58;71.77;100529.31;2126383;83;31732;-61
2023/01/02 06:47:20;;;;;;;16.10;10.18;;;;;;;8.58;71.90;100522.63;2126658;82;33773;-60
2023/01/02 06:50:22;;;;;;;15.30;8.98;;;;;;;8.60;71.82;100524.78;2139179;83;30197;-61
2023/01/02 06:53:25;;;;;;;17.25;9.10;;;;;;;8.61;71.81;100521.16;2135239;83;27653;-60
2023/01/02 06:56:27;;;;;;;16.05;9.25;;;;;;;8.63;71.82;100522.45;2137986;83;28822;-61
2023/01/02 06:59:29;;;;;;;14.78;9.23;;;;;;;8.64;71.85;100525.53;2148129;81;31890;-61
2023/01/02 07:02:31;;;;;;;16.80;10.63;;;;;;;8.65;71.85;100525.94;2157834;82;33524;-61
2023/01/02 07:05:33;;;;;;;18.55;10.48;;;;;;;8.65;71.94;100532.14;2157929;82;30270;-60
2023/01/02 07:08:36;;;;;;;14.93;10.10;;;;;;;8.65;72.08;100525.45;2158662;82;27554;-61
2023/01/02 07:11:38;;;;;;;14.78;9.48;;;;;;;8.68;72.14;100535.63;2157897;82;29582;-61
2023/01/02 07:14:41;;;;;;;16.90;9.18;;;;;;;8.67;72.37;100533.44;2158292;82;32174;-60
2023/01/02 07:17:43;;;;;;;15.30;9.23;;;;;;;8.68;72.21;100535.17;2158161;82;33762;-60
2023/01/02 07:20:55;;;;;;;16.97;10.20;;;;;;;8.71;72.21;100530.17;2157887;82;30199;-60
2023/01/02 07:23:57;;;;;;;19.25;10.53;;;;;;;8.72;72.21;100538.59;2148253;82;27703;-61
2023/01/02 07:26:59;;;;;;;22.13;13.18;;;;;;;8.73;72.18;100530.51;2147793;82;29547;-60
2023/01/02 07:30:01;;;;;;;32.58;16.27;;;;;;;8.74;72.39;100536.73;2147809;82;32493;-61
2023/01/02 07:33:04;;;;;;;33.42;16.30;;;;;;;8.73;72.48;100526.98;2147754;82;33864;-61
2023/01/02 07:36:10;;;;;;;27.35;13.80;;;;;;;8.72;72.55;100524.76;2147803;82;28480;-61
2023/01/02 07:39:12;;;;;;;28.83;15.28;;;;;;;8.74;72.53;100540.27;2152838;82;27734;-61
2023/01/02 07:42:14;;;;;;;30.72;14.80;;;;;;;8.76;72.55;100543.75;2157669;82;29952;-60
2023/01/02 07:45:16;;;;;;;21.62;13.50;;;;;;;8.79;72.51;100542.75;2146551;81;32133;-62
2023/01/02 07:48:19;;;;;;;23.02;12.80;;;;;;;8.80;72.60;100536.03;2144915;82;33034;-61
2023/01/02 07:51:21;;;;;;;17.25;11.78;;;;;;;8.80;72.62;100526.69;2145059;82;29895;-60
2023/01/02 07:54:23;;;;;;;22.93;12.80;;;;;;;8.84;72.76;100527.91;2144926;83;27628;-60
2023/01/02 07:57:27;;;;;;;29.63;15.58;;;;;;;8.87;72.69;100535.33;2145216;83;28706;-60
2023/01/02 08:00:29;;;;;;;20.60;13.67;;;;;;;8.89;72.67;100532.14;2145505;82;32179;-60
2023/01/02 08:03:32;;;;;;;24.65;14.10;;;;;;;8.91;72.68;100541.41;2144847;83;34234;-60
2023/01/02 08:06:34;;;;;;;27.00;14.98;;;;;;;8.89;72.69;100544.61;2145306;82;29027;-60
2023/01/02 08:09:36;;;;;;;22.30;11.83;;;;;;;8.89;72.64;100545.50;2145260;82;27676;-60
2023/01/02 08:12:39;;;;;;;15.70;10.65;;;;;;;8.90;72.68;100535.22;2144860;82;29927;-61
2023/01/02 08:15:41;;;;;;;19.32;11.25;;;;;;;8.91;72.77;100540.08;2145343;82;31043;-61
2023/01/02 08:18:44;;;;;;;17.95;10.90;;;;;;;8.93;72.88;100540.89;2145298;82;33184;-61
2023/01/02 08:21:46;;;;;;;16.40;10.28;;;;;;;8.96;72.99;100544.30;2142782;82;30018;-60
2023/01/02 08:24:48;;;;;;;17.35;10.25;;;;;;;9.03;73.10;100542.74;2133314;82;27624;-60
2023/01/02 08:27:50;;;;;;;17.07;9.30;;;;;;;9.09;73.10;100542.52;2080502;85;29101;-60
2023/01/02 08:30:52;;;;;;;17.35;9.43;;;;;;;9.17;73.11;100544.88;2079908;85;32264;-60
2023/01/02 08:33:55;;;;;;;15.78;9.90;;;;;;;9.25;73.11;100548.98;2080292;85;32401;-60
2023/01/02 08:36:56;;;;;;;17.92;10.55;;;;;;;9.34;73.10;100549.08;2080363;85;30223;-61
2023/01/02 08:39:59;;;;;;;18.67;10.43;;;;;;;9.43;73.12;100551.38;2080099;85;27731;-60
2023/01/02 08:43:02;;;;;;;15.50;9.78;;;;;;;9.54;73.20;100546.03;2080570;83;29330;-61
2023/01/02 08:46:06;;;;;;;17.55;10.28;;;;;;;9.64;73.21;100540.72;2132937;82;31062;-60
2023/01/02 08:49:10;;;;;;;15.15;9.33;;;;;;;9.76;73.23;100536.67;2132684;83;33016;-60
2023/01/02 08:52:11;;;;;;;19.55;9.20;;;;;;;9.90;73.23;100530.70;2140027;82;28563;-60
2023/01/02 08:55:14;;;;;;;21.10;9.20;;;;;;;10.02;73.15;100521.28;2151520;82;27727;-60
2023/01/02 08:58:16;;;;;;;13.83;8.73;;;;;;;10.17;73.03;100523.28;2151303;81;29538;-61
2023/01/02 09:01:18;;;;;;;17.35;8.50;;;;;;;10.29;72.86;100525.88;2151486;81;32082;-60
2023/01/02 09:04:20;;;;;;;11.83;8.25;;;;;;;10.41;72.77;100526.29;2151570;82;33512;-60
2023/01/02 09:07:22;;;;;;;14.33;8.95;;;;;;;10.53;72.60;100524.38;2151622;81;29883;-60
2023/01/02 09:10:24;;;;;;;13.45;9.43;;;;;;;10.63;72.51;100528.40;2151474;82;27704;-60
2023/01/02 09:13:28;;;;;;;13.62;7.92;;;;;;;10.74;72.37;100522.55;2124495;82;29657;-60
2023/01/02 09:16:30;;;;;;;18.80;9.18;;;;;;;10.86;72.35;100522.89;2151621;81;31028;-60
2023/01/02 09:19:32;;;;;;;14.93;8.85;;;;;;;10.97;72.19;100517.88;2151573;82;33130;-60
2023/01/02 09:22:35;;;;;;;14.80;8.40;;;;;;;11.07;72.12;100516.97;2155249;82;29794;-60
2023/01/02 09:25:37;;;;;;;21.05;9.98;;;;;;;11.16;71.80;100519.23;2158559;82;27611;-60
2023/01/02 09:28:39;;;;;;;13.03;9.25;;;;;;;11.24;71.60;100509.47;2158472;82;28254;-60
2023/01/02 09:31:41;;;;;;;15.32;7.92;;;;;;;11.33;71.36;100505.46;2158093;82;31962;-60
2023/01/02 09:34:49;;;;;;;13.58;8.20;;;;;;;11.44;71.15;100487.00;2158385;81;33110;-60
2023/01/02 09:37:47;;;;;;;16.50;8.20;;;;;;;11.58;71.09;100490.80;2157500;82;30206;-60
2023/01/02 09:40:52;;;;;;;19.45;7.75;;;;;;;11.74;70.95;100498.95;2158531;82;27652;-61
2023/01/02 09:44:10;;;;;;;11.43;7.55;;;;;;;11.92;70.83;100511.87;2158311;81;32352;-60
2023/01/02 09:47:22;;;;;;;13.70;8.63;;;;;;;12.12;70.79;100510.86;2159946;81;32285;-60
2023/01/02 09:50:28;;;;;;;15.28;7.83;;;;;;;12.36;70.45;100501.97;2157738;82;33715;-61
2023/01/02 09:53:32;;;;;;;10.63;6.03;;;;;;;12.59;69.99;100485.08;2154650;82;29070;-61
2023/01/02 09:56:39;;;;;;;10.50;6.42;;;;;;;12.82;69.68;100489.66;2158327;82;27655;-60
2023/01/02 09:59:52;;;;;;;10.75;6.62;;;;;;;13.02;69.68;100516.27;2157854;82;28658;-61
2023/01/02 10:03:14;;;;;;;14.45;7.22;;;;;;;13.19;69.28;100515.33;2157382;82;32396;-60
2023/01/02 10:07:03;;;;;;;12.80;6.33;;;;;;;13.34;69.17;100516.25;2157368;82;33052;-61
2023/01/02 10:10:16;;;;;;;8.90;5.08;;;;;;;13.45;68.85;100511.63;2157882;82;29212;-61
2023/01/02 10:13:41;;;;;;;12.80;6.47;;;;;;;13.54;68.64;100525.52;2157647;81;27692;-60
2023/01/02 10:16:46;;;;;;;11.03;5.67;;;;;;;13.57;68.15;100518.13;2155084;82;29171;-61
2023/01/02 10:19:56;;;;;;;12.35;6.20;;;;;;;13.63;68.16;100505.66;2154697;82;31735;-61
2023/01/02 10:23:06;;;;;;;14.33;7.03;;;;;;;13.72;68.00;100504.25;2117848;82;33715;-63
2023/01/02 10:26:17;;;;;;;11.75;6.87;;;;;;;13.81;67.59;100510.42;2117230;83;29095;-60
2023/01/02 10:29:29;;;;;;;9.20;5.62;;;;;;;13.91;67.38;100521.50;2117881;84;27636;-60
2023/01/02 10:32:33;;;;;;;8.88;5.12;;;;;;;14.00;66.99;100505.27;2117790;83;29411;-61
2023/01/02 10:35:40;;;;;;;9.78;5.37;;;;;;;14.06;66.42;100482.02;2117650;84;31728;-61
2023/01/02 10:38:42;;;;;;;11.30;5.62;;;;;;;14.13;66.49;100494.62;2117633;84;32972;-61
2023/01/02 10:41:48;;;;;;;9.25;6.12;;;;;;;14.21;66.10;100494.14;2117333;83;29867;-61
2023/01/02 10:44:51;;;;;;;10.60;5.60;;;;;;;14.27;65.46;100477.58;2123578;83;27679;-61
2023/01/02 10:47:53;;;;;;;11.57;5.47;;;;;;;14.36;65.49;100482.88;2132755;83;28713;-60
2023/01/02 10:50:58;;;;;;;10.18;5.87;;;;;;;14.49;65.66;100501.84;2143649;82;31816;-60
2023/01/02 10:54:06;;;;;;;9.23;5.50;;;;;;;14.58;65.50;100510.69;2133291;82;32951;-61
2023/01/02 10:57:12;;;;;;;11.90;6.20;;;;;;;14.69;65.21;100514.09;2158359;82;29877;-61
2023/01/02 11:00:25;;;;;;;10.68;6.00;;;;;;;14.77;65.26;100506.86;2158784;82;27989;-61
2023/01/02 11:03:26;;;;;;;11.08;6.97;;;;;;;14.85;65.08;100505.90;2158752;82;28646;-60
2023/01/02 11:06:30;;;;;;;14.20;7.28;;;;;;;14.96;64.84;100496.62;2158542;82;31442;-61
2023/01/02 11:09:36;;;;;;;15.95;7.92;;;;;;;14.96;64.84;100496.62;2158645;82;33756;-60
2023/01/02 11:12:47;;;;;;;16.05;7.55;;;;;;;15.01;64.54;100486.41;2158582;82;29108;-60
2023/01/02 11:15:59;;;;;;;13.10;7.78;;;;;;;15.03;64.39;100483.12;2158661;82;27588;-61
2023/01/02 11:19:03;;;;;;;13.30;7.12;;;;;;;15.06;63.78;100470.41;2158585;81;29091;-61
2023/01/02 11:22:04;;;;;;;13.00;5.85;;;;;;;15.02;63.30;100449.02;2152240;82;32090;-61
2023/01/02 11:25:25;;;;;;;11.88;5.60;;;;;;;14.99;62.89;100427.63;2151126;81;34031;-61
2023/01/02 11:28:31;;;;;;;10.72;5.90;;;;;;;14.94;62.90;100421.66;2150048;82;29821;-61
2023/01/02 11:31:33;;;;;;;11.25;6.92;;;;;;;14.88;63.07;100432.38;2151887;82;27709;-61
2023/01/02 11:34:39;;;;;;;12.55;6.50;;;;;;;14.89;63.17;100442.20;2151117;82;29545;-61
2023/01/02 11:37:47;;;;;;;11.05;5.30;;;;;;;14.92;63.12;100442.97;2124217;82;31889;-61
2023/01/02 11:41:01;;;;;;;9.93;6.05;;;;;;;14.92;62.58;100435.73;2150933;82;32957;-62
2023/01/02 11:44:04;;;;;;;12.88;6.33;;;;;;;14.94;63.12;100438.34;2124608;82;28481;-61
2023/01/02 11:47:09;;;;;;;14.13;8.25;;;;;;;14.99;63.04;100444.28;2148107;82;27711;-61
2023/01/02 11:50:16;;;;;;;11.45;7.47;;;;;;;15.03;63.20;100453.45;2142032;82;29755;-61
2023/01/02 11:53:23;;;;;;;9.75;6.28;;;;;;;15.03;63.20;100453.45;2125610;83;31827;-61
2023/01/02 11:56:33;;;;;;;11.08;6.95;;;;;;;15.06;63.26;100451.02;2126129;83;32975;-60
2023/01/02 11:59:43;;;;;;;13.53;7.20;;;;;;;15.06;63.27;100441.58;2124574;83;29854;-60
2023/01/02 12:02:48;;;;;;;10.15;6.47;;;;;;;15.07;63.21;100440.61;2126498;83;28208;-61
2023/01/02 12:06:23;;;;;;;11.60;7.28;;;;;;;15.06;62.96;100432.63;2126782;83;28648;-61
2023/01/02 12:09:39;;;;;;;9.15;6.20;;;;;;;15.05;63.05;100427.70;2124710;83;31461;-61
2023/01/02 12:13:12;;;;;;;16.10;6.75;;;;;;;15.04;63.15;100427.31;2126123;83;33361;-61
2023/01/02 12:16:38;;;;;;;9.98;6.22;;;;;;;15.06;63.34;100426.73;2125958;83;29891;-60
2023/01/02 12:19:55;;;;;;;;;;;;;;;15.07;63.25;100423.07;2128478;82;27620;-60
2023/01/02 12:23:17;;;;;;;11.78;7.03;;;;;;;15.07;63.18;100423.53;2006922;88;29933;-61
2023/01/02 12:26:26;;;;;;;10.85;6.15;;;;;;;15.05;63.39;100423.65;2012560;88;31515;-61
2023/01/02 12:29:57;;;;;;;11.20;6.85;;;;;;;15.07;63.15;100430.28;2012118;88;32689;-61
2023/01/02 12:33:23;;;;;;;13.03;7.67;;;;;;;15.06;63.25;100431.28;2012352;88;29420;-60
2023/01/02 12:36:39;;;;;;;;;;;;;;;15.07;63.34;100431.62;2014399;88;27749;-61
2023/01/02 12:40:18;;;;;;;18.80;8.98;;;;;;;15.07;63.15;100433.86;2014678;88;28858;-60
2023/01/02 12:43:49;;;;;;;19.67;8.20;;;;;;;15.03;63.06;100446.70;2014092;88;32223;-60
2023/01/02 12:47:16;;;;;;;10.50;6.75;;;;;;;15.01;62.91;100448.62;2015404;87;33843;-60
2023/01/02 12:50:57;;;;;;;13.08;6.40;;;;;;;15.01;62.97;100445.05;2005582;88;29963;-60
2023/01/02 12:54:39;;;;;;;9.45;5.95;;;;;;;14.98;62.96;100436.69;1981662;89;27747;-61
2023/01/02 12:58:07;;;;;;;11.73;7.45;;;;;;;14.97;62.86;100428.20;1985975;88;28683;-60
2023/01/02 13:01:29;;;;;;;14.05;6.12;;;;;;;14.92;62.75;100423.59;1930883;92;31957;-60
2023/01/02 13:04:53;;;;;;;12.55;6.67;;;;;;;14.86;62.65;100424.86;1931162;92;32895;-60
2023/01/02 13:08:00;;;;;;;10.35;6.80;;;;;;;14.81;62.72;100430.19;1930973;92;30185;-61
2023/01/02 13:11:04;;;;;;;14.10;6.78;;;;;;;14.72;62.75;100433.87;1931104;92;27860;-60
2023/01/02 13:14:12;;;;;;;24.00;9.27;;;;;;;14.65;62.82;100430.27;1931187;92;29544;-60
2023/01/02 13:17:31;;;;;;;10.68;6.45;;;;;;;14.61;62.83;100430.11;1963146;90;32258;-60
2023/01/02 13:20:44;;;;;;;9.80;6.90;;;;;;;14.53;62.79;100427.41;1970579;88;33025;-60
2023/01/02 13:23:47;;;;;;;15.05;9.80;;;;;;;14.27;62.95;100401.66;1971296;90;29385;-60
2023/01/02 13:26:51;;;;;;;12.90;8.05;;;;;;;14.27;62.95;100401.66;1971490;90;27771;-60
2023/01/02 13:29:53;;;;;;;13.00;7.97;;;;;;;14.33;62.91;100424.65;1971515;90;29749;-61
2023/01/02 13:32:57;;;;;;;11.57;8.05;;;;;;;14.27;63.09;100427.26;1971207;90;46643;-60
2023/01/02 13:36:28;;;;;;;11.83;7.53;;;;;;;14.21;63.11;100426.28;1973176;85;34486;-60
2023/01/02 13:39:38;;;;;;;11.88;7.37;;;;;;;14.10;63.38;100432.84;2088780;85;30713;-61
2023/01/02 13:42:58;;;;;;;14.68;7.85;;;;;;;14.10;63.38;100432.84;2089461;85;27622;-60
2023/01/02 13:46:01;;;;;;;13.38;8.20;;;;;;;14.06;63.44;100433.52;2090487;85;28680;-62
2023/01/02 13:49:05;;;;;;;16.07;7.53;;;;;;;14.01;63.54;100441.02;2090706;85;31888;-61
2023/01/02 13:52:17;;;;;;;10.80;8.03;;;;;;;13.99;63.69;100444.28;2126165;82;34071;-62
2023/01/02 13:55:30;;;;;;;17.77;8.73;;;;;;;13.97;63.74;100443.50;2126324;83;29766;-61
2023/01/02 13:58:51;;;;;;;16.20;10.90;;;;;;;13.94;63.73;100450.41;2126219;83;27724;-62
2023/01/02 14:02:07;;;;;;;11.48;8.18;;;;;;;13.81;63.80;100437.70;2126237;83;28663;-62
2023/01/02 14:05:59;;;;;;;17.27;8.95;;;;;;;13.80;64.00;100442.70;2125004;83;32214;-62
2023/01/02 14:09:11;;;;;;;17.17;9.40;;;;;;;13.72;64.01;100454.44;2126320;83;32984;-62
2023/01/02 14:12:13;;;;;;;14.45;8.53;;;;;;;13.66;64.27;100465.56;2126226;83;29843;-62
2023/01/02 14:15:19;;;;;;;13.68;9.20;;;;;;;13.61;64.36;100468.55;2126101;83;27673;-62
2023/01/02 14:18:28;;;;;;;10.35;7.92;;;;;;;13.39;64.44;100440.66;2126225;83;29671;-61
2023/01/02 14:22:02;;;;;;;14.30;8.80;;;;;;;13.39;64.44;100440.66;2126364;82;31845;-62
2023/01/02 14:25:05;;;;;;;13.98;9.05;;;;;;;13.27;64.86;100440.91;2126286;83;34104;-65
2023/01/02 14:28:13;;;;;;;14.95;9.63;;;;;;;13.34;65.05;100463.78;2126492;83;29161;-63